Wednesday, June 20, 2018, 7:36 AM GMT
Back to Local

CWRK, Bancroft Automatic Weather Reporting System

Location: , , Canada Lat: 45.067
Local Time: 7:36 AM GMT ( 7:36 GMT) Lon: -77.867
Time Zone: GMT Elev: 1085 ft

Show me the last for .
Show Coded

Time T Td Feel RH Dir Speed Gust Alt SLP Vis Weather Sky Remarks
2018-06-20 07:00 44 43 - 97 - Calm - - 29.94 0 None
2018-06-20 06:00 46 45 - 97 - Calm - - 29.95 0 None
2018-06-20 05:00 46 46 - 97 - Calm - - 29.96 0 None
2018-06-20 04:00 49 48 - 97 - Calm - - 29.97 0 None
2018-06-20 03:00 49 49 - 98 - Calm - - 29.97 0 None
2018-06-20 02:00 55 50 - 81 - Calm - - 29.97 0 None
2018-06-20 01:00 61 49 - 65 - Calm - - 29.96 0 None
2018-06-20 00:00 70 46 - 42 40° 1 - - 29.96 0 None
2018-06-19 23:00 73 42 - 32 340° 6 - - 29.95 0 None
2018-06-19 22:00 74 42 - 32 340° 3 - - 29.96 0 None
2018-06-19 21:00 73 41 - 31 330° 7 - - 29.97 0 None
2018-06-19 20:00 72 42 - 34 70° 5 - - 29.98 0 None
2018-06-19 19:00 69 40 - 35 10° 7 - - 29.99 0 None
2018-06-19 18:00 69 41 - 35 350° 7 - - 30.01 0 None
2018-06-19 17:00 69 42 - 37 20° 8 - - 30.02 0 None
2018-06-19 16:00 64 40 - 42 360° 8 - - 30.03 0 None
2018-06-19 15:00 62 42 - 48 10° 9 - - 30.05 0 None
2018-06-19 14:00 60 41 - 48 10° 9 - - 30.05 0 None
2018-06-19 13:00 58 42 - 54 10° 9 20 - 30.06 0 Peak wind: 19 mph (17 kts) from 340° at 57 min
2018-06-19 12:00 56 41 - 58 20° 8 - - 30.05 0 None
2018-06-19 11:00 54 42 - 65 10° 8 - - 30.03 0 None
2018-06-19 10:00 53 44 - 72 360° 7 - - 30.00 0 None
2018-06-19 09:00 55 48 - 77 350° 8 - - 29.98 0 None
2018-06-19 08:00 58 49 - 73 360° 8 - - 29.95 0 None

Support USWX by starting your Amazon purchase here.